Aktuelle Seite: Home
Planespotting and more...
Antonov 124 in GRZ / Oktober 2013
Airpower 13 - 28. und 29. Juni 2013 / Zeltweg Stmk
Faszination Airliner
Faszination Luftfahrt
Antonov 124-100 in GRZ
VIE - Vienna Int Airport
CFU/LGKR - Corfu Airport Juli 2013
MUC - Munich Airport

Bilder

  • Bilder: 1980
  • Bildaufrufe: 3706166

Bildersuche


Besucher


dieser Monat: 104
Total: 28218

Austria 66.6%Austria
Germany 19.6%Germany
United States 5.8%United States
Luxembourg 1.9%Luxembourg
Switzerland 1.9%Switzerland
France 1.9%France
Ukraine 1.9%Ukraine

The airport runway is the most important mainstreet in any town.

News - Neues auf www.airliner-aviation.at

News 08.06.2014
Bilder aus Budapest von Mai 2014 online.
News 05.05.2014
Bilde der Cargoflüge mit Etihad Airways Cargo Boeing 777 und Atlas Air Boeing 747-400.
News 01.02.2014
Erste Bilder aus GRZ von 2014

Beliebteste Bilder

Special Movements GRZ

Keine aktuellen Veranstaltungen.

Zufallsbild

Airports:


Erweitertes Angebot am Flughafen Graz. Neu mit InterSky nach Zürich und öfter Friedrichshafen - Graz.
• 12 x pro Woche Graz - Zürich - Graz .

Airlines


Die Marke Lauda Air soll mit 2013 eingestellt werden.
Update: Mit Ausflottung der OE-LNK am 2.4.2013 ist nun auch Lauda Air Geschichte.

Veranstaltungen aktuell

Keine aktuellen Veranstaltungen.

Webcam LOWG

Webcam OFFLINE

Flugwetter LOWG

[source: ADDS]
METAR
LOWG 152350Z AUTO VRB01KT 9999 FEW046 BKN048 06/02 Q1030 =
TAF LOWG 152315Z 1600/1624 VRB02KT 9999 BKN040 TX09/1613Z TN02/1700Z TEMPO 1612/1616 FEW050
TAF
TAF LOWG 152315Z 1600/1624 VRB02KT 9999 BKN040 TX09/1613Z TN02/1700Z TEMPO 1612/1616 FEW050 =

Weblinks meistgeklickt


Warning: Creating default object from empty value in /www/htdocs/w00fa413/airliner-aviation/modules/mod_quicklistweblinks/helper.php on line 200

Warning: Creating default object from empty value in /www/htdocs/w00fa413/airliner-aviation/modules/mod_quicklistweblinks/helper.php on line 200

Warning: Creating default object from empty value in /www/htdocs/w00fa413/airliner-aviation/modules/mod_quicklistweblinks/helper.php on line 200

Warning: Creating default object from empty value in /www/htdocs/w00fa413/airliner-aviation/modules/mod_quicklistweblinks/helper.php on line 200

Warning: Creating default object from empty value in /www/htdocs/w00fa413/airliner-aviation/modules/mod_quicklistweblinks/helper.php on line 200

Warning: Creating default object from empty value in /www/htdocs/w00fa413/airliner-aviation/modules/mod_quicklistweblinks/helper.php on line 200

Warning: Creating default object from empty value in /www/htdocs/w00fa413/airliner-aviation/modules/mod_quicklistweblinks/helper.php on line 200
anni3
 Seit 27. Februar 2011 online!

Gästebuch - letzter Eintrag

Daniel und Sophie
Hallo das Lob geben wir natürlich auch gerne zurück. Auch hier eine sehr gelungene Spotterseite! Wirklich schöne Bilder und ein tolles Design! Weiter so! Liebe Grüße aus Hamburg! Daniel und Sophie
Freitag, 14. Juni 2013 13:36